Погода Пуэрто-Малдонадона неделю

Арекина, Перу

20 - 26 июля
  • 20июля
    Сегодня
    +17°
    +31°
    Ясно и безоблачно
    ВремяПогодаТемператураВлажностьДавлениеВетер, м/сВероятность осадков
    01:00Ясно и безоблачно+18°C92 %745 мм1.7 м/с5 %
    04:00Ясно и безоблачно+17°C94 %745 мм1.5 м/с5 %
    07:00Практически безоблачно+18°C91 %747 мм0.4 м/с5 %
    10:00Практически безоблачно+27°C65 %748 мм1.8 м/с5 %
    13:00Ясно и безоблачно+29°C47 %746 мм1.9 м/с5 %
    16:00Ясно и безоблачно+30°C65 %744 мм1.9 м/с5 %
    19:00Ясно и безоблачно+24°C88 %744 мм1.8 м/с5 %
    22:00Ясно и безоблачно+21°C87 %744 мм1.8 м/с5 %
  • 21июля
    Воскресенье
    +19°
    +32°
    Ясно и безоблачно
    ВремяПогодаТемператураВлажностьДавлениеВетер, м/сВероятность осадков
    01:00Ясно и безоблачно+20°C91 %744 мм1.5 м/с5 %
    04:00Ясно и безоблачно+19°C92 %744 мм0.8 м/с5 %
    07:00Ясно и безоблачно+19°C92 %745 мм0.7 м/с5 %
    10:00Ясно и безоблачно+27°C63 %746 мм1.8 м/с5 %
    13:00Ясно и безоблачно+30°C49 %743 мм2.2 м/с5 %
    16:00Ясно и безоблачно+31°C68 %742 мм2.0 м/с5 %
    19:00Ясно и безоблачно+25°C85 %742 мм1.8 м/с5 %
    22:00Ясно и безоблачно+23°C88 %743 мм1.6 м/с5 %
  • 22июля
    Понедельник
    +19°
    +33°
    Ясно и безоблачно
    ВремяПогодаТемператураВлажностьДавлениеВетер, м/сВероятность осадков
    01:00Ясно и безоблачно+21°C91 %743 мм1.4 м/с5 %
    04:00Ясно и безоблачно+20°C92 %743 мм1.2 м/с5 %
    07:00Ясно и безоблачно+20°C92 %745 мм0.5 м/с5 %
    10:00Ясно и безоблачно+29°C63 %746 мм1.9 м/с5 %
    13:00Ясно и безоблачно+31°C44 %744 мм2.1 м/с5 %
    16:00Ясно и безоблачно+32°C65 %743 мм2.0 м/с5 %
    19:00Ясно и безоблачно+26°C84 %744 мм1.9 м/с5 %
    22:00Ясно и безоблачно+24°C83 %745 мм2.0 м/с5 %
  • 23июля
    Вторник
    +19°
    +33°
    Ясно и безоблачно
    ВремяПогодаТемператураВлажностьДавлениеВетер, м/сВероятность осадков
    01:00Ясно и безоблачно+21°C88 %744 мм1.6 м/с5 %
    04:00Ясно и безоблачно+20°C91 %744 мм1.2 м/с5 %
    07:00Ясно и безоблачно+21°C90 %746 мм0.4 м/с5 %
    10:00Ясно и безоблачно+29°C62 %747 мм1.9 м/с5 %
    13:00Ясно и безоблачно+31°C41 %745 мм2.2 м/с5 %
    16:00Ясно и безоблачно+32°C61 %743 мм2.3 м/с5 %
    19:00Ясно и безоблачно+26°C77 %743 мм1.8 м/с5 %
    22:00Ясно и безоблачно+24°C82 %744 мм2.0 м/с5 %
Мы используем cookies
Соглашаюсь